Time;durP1;ratioP1;P1;durP2;ratioP2;P2;SDS_P1;SDS_P2;PMS_P1;PMS_P2;Temp;Humidity;BMP_temperature;BMP_pressure;BME280_temperature;BME280_humidity;BME280_pressure;Samples;Min_cycle;Max_cycle;Signal;HPM_P1;HPM_P2
2022/08/06 00:01:47;;;;;;;2.15;1.45;;;;;;;19.50;62.18;96412.09;5062021;28;24434;-74
2022/08/06 00:04:16;;;;;;;1.87;1.23;;;;;;;19.45;61.82;96424.00;5059637;28;24461;-74
2022/08/06 00:06:42;;;;;;;3.63;1.20;;;;;;;19.16;62.55;96424.75;5055759;28;24984;-74
2022/08/06 00:09:10;;;;;;;4.22;1.42;;;;;;;19.12;62.81;96425.16;5060594;28;24430;-74
2022/08/06 00:11:37;;;;;;;3.10;1.13;;;;;;;19.10;62.58;96420.88;5061819;28;24483;-74
2022/08/06 00:14:04;;;;;;;2.97;1.20;;;;;;;19.30;61.90;96420.91;5060660;28;24496;-73
2022/08/06 00:16:30;;;;;;;2.53;1.40;;;;;;;19.41;61.70;96418.19;5060433;28;24975;-74
2022/08/06 00:18:57;;;;;;;4.78;1.42;;;;;;;19.38;61.60;96413.19;5059847;28;24808;-74
2022/08/06 00:21:25;;;;;;;2.28;1.42;;;;;;;19.31;61.65;96407.63;5046684;28;24437;-74
2022/08/06 00:23:51;;;;;;;2.07;1.13;;;;;;;19.07;62.78;96413.25;5063657;28;24880;-74
2022/08/06 00:26:18;;;;;;;4.82;1.30;;;;;;;19.07;62.93;96418.50;5058299;28;24797;-76
2022/08/06 00:28:44;;;;;;;3.13;1.48;;;;;;;19.19;62.74;96411.34;5054562;28;24489;-74
2022/08/06 00:31:11;;;;;;;3.80;1.27;;;;;;;19.10;62.47;96407.75;5052163;28;24447;-74
2022/08/06 00:33:37;;;;;;;2.60;1.02;;;;;;;19.21;62.09;96419.09;5061007;28;24489;-74
2022/08/06 00:36:05;;;;;;;4.03;1.50;;;;;;;19.33;61.00;96410.16;5056075;28;24442;-74
2022/08/06 00:38:32;;;;;;;1.92;1.35;;;;;;;19.13;62.26;96421.53;5055659;28;24493;-76
2022/08/06 00:40:59;;;;;;;5.43;1.50;;;;;;;19.06;62.50;96424.72;5061286;28;24427;-75
2022/08/06 00:43:26;;;;;;;3.00;1.40;;;;;;;19.18;62.09;96412.31;5060634;28;24438;-74
2022/08/06 00:45:52;;;;;;;4.18;1.63;;;;;;;18.97;62.76;96422.88;5058674;28;24450;-74
2022/08/06 00:48:19;;;;;;;2.08;1.08;;;;;;;18.93;63.25;96431.97;5060182;28;24440;-75
2022/08/06 00:50:45;;;;;;;5.68;1.60;;;;;;;19.04;62.47;96425.81;5061280;28;25036;-74
2022/08/06 00:53:12;;;;;;;5.13;1.17;;;;;;;18.73;63.61;96431.06;5064250;28;24492;-75
2022/08/06 00:55:40;;;;;;;2.13;1.10;;;;;;;18.79;63.23;96424.44;5067842;28;24472;-76
2022/08/06 00:58:07;;;;;;;2.80;1.20;;;;;;;18.84;63.58;96430.97;5060330;28;25022;-74
2022/08/06 01:00:35;;;;;;;4.13;1.23;;;;;;;18.97;63.10;96430.75;5062368;28;24493;-75
2022/08/06 01:03:01;;;;;;;1.95;1.38;;;;;;;18.96;62.35;96438.78;5062860;28;24436;-75
2022/08/06 01:05:27;;;;;;;2.15;1.20;;;;;;;18.81;63.26;96425.16;5066891;28;24462;-74
2022/08/06 01:07:54;;;;;;;2.30;1.05;;;;;;;19.05;61.94;96437.97;5056798;28;24465;-73
2022/08/06 01:10:22;;;;;;;1.88;1.05;;;;;;;18.96;62.67;96444.84;5063702;28;24526;-75
2022/08/06 01:12:50;;;;;;;2.65;1.20;;;;;;;18.79;63.12;96437.56;5060789;28;24538;-74
2022/08/06 01:15:16;;;;;;;4.68;1.40;;;;;;;18.96;62.77;96441.41;5067842;28;24439;-75
2022/08/06 01:17:54;;;;;;;5.72;1.60;;;;;;;19.03;62.32;96442.53;5060275;28;24435;-74
2022/08/06 01:20:30;;;;;;;2.20;1.00;;;;;;;18.99;62.44;96444.59;5057055;28;24439;-73
2022/08/06 01:23:11;;;;;;;3.03;1.38;;;;;;;19.01;62.29;96436.56;5058929;28;24493;-76
2022/08/06 01:25:54;;;;;;;1.73;1.07;;;;;;;18.94;62.60;96436.25;5066991;28;24477;-74
2022/08/06 01:28:26;;;;;;;1.60;1.13;;;;;;;18.72;62.31;96436.44;5054245;28;24427;-74
2022/08/06 01:30:58;;;;;;;1.88;1.05;;;;;;;18.70;62.43;96441.78;5060452;28;24995;-76
2022/08/06 01:33:30;;;;;;;2.92;1.27;;;;;;;18.82;60.97;96445.19;5064304;28;24431;-74
2022/08/06 01:36:03;;;;;;;6.18;1.02;;;;;;;18.96;61.37;96431.72;5064689;28;24542;-74
2022/08/06 01:38:35;;;;;;;1.98;1.15;;;;;;;18.99;60.05;96439.34;5063931;28;24468;-75
2022/08/06 01:41:07;;;;;;;2.40;0.98;;;;;;;18.75;60.98;96446.66;5061831;28;24733;-74
2022/08/06 01:43:38;;;;;;;3.05;1.30;;;;;;;18.67;61.58;96443.84;5058587;28;24450;-74
2022/08/06 01:46:06;;;;;;;1.30;0.88;;;;;;;18.74;61.69;96442.38;5065752;28;24824;-75
2022/08/06 01:48:37;;;;;;;1.77;0.98;;;;;;;18.82;61.48;96445.19;5064189;28;24461;-74
2022/08/06 01:51:07;;;;;;;8.02;1.10;;;;;;;18.82;61.42;96439.94;5060958;28;24435;-74
2022/08/06 01:53:37;;;;;;;2.17;1.17;;;;;;;18.72;62.07;96442.50;5063183;28;24465;-76
2022/08/06 01:56:07;;;;;;;2.55;1.13;;;;;;;18.64;62.96;96439.66;5063987;28;24436;-74
2022/08/06 01:58:39;;;;;;;2.67;1.02;;;;;;;18.81;62.47;96438.28;5065767;28;24453;-76
2022/08/06 02:01:12;;;;;;;2.65;1.15;;;;;;;18.59;63.05;96442.69;5062362;28;25737;-75
2022/08/06 02:03:43;;;;;;;2.05;1.13;;;;;;;18.56;63.51;96436.88;5063871;28;24442;-74
2022/08/06 02:06:13;;;;;;;2.28;1.10;;;;;;;18.93;63.01;96434.59;5063942;28;24747;-74
2022/08/06 02:08:41;;;;;;;2.67;1.10;;;;;;;18.76;63.02;96437.81;5063736;28;24521;-76
2022/08/06 02:11:11;;;;;;;3.28;1.02;;;;;;;18.63;63.77;96438.84;5061796;28;24481;-73
2022/08/06 02:13:42;;;;;;;4.10;1.40;;;;;;;18.70;63.48;96435.72;5057373;28;24439;-74
2022/08/06 02:16:12;;;;;;;3.88;1.05;;;;;;;18.55;63.97;96435.22;5064732;28;24443;-74
2022/08/06 02:18:42;;;;;;;2.70;1.20;;;;;;;18.38;64.87;96440.06;5062171;28;24461;-74
2022/08/06 02:21:13;;;;;;;2.15;1.10;;;;;;;18.45;64.89;96443.00;5053805;28;25084;-74
2022/08/06 02:23:40;;;;;;;2.80;1.30;;;;;;;18.54;64.09;96459.75;5052188;28;24440;-74
2022/08/06 02:26:09;;;;;;;1.83;1.15;;;;;;;18.29;64.80;96450.50;5054353;28;25019;-74
2022/08/06 02:28:39;;;;;;;3.50;1.25;;;;;;;18.14;65.46;96453.44;5061961;28;24438;-74
2022/08/06 02:31:06;;;;;;;4.00;1.00;;;;;;;18.32;65.14;96458.94;5054170;28;25000;-74
2022/08/06 02:33:32;;;;;;;3.70;1.10;;;;;;;18.45;64.35;96457.94;5059320;28;24793;-76
2022/08/06 02:36:03;;;;;;;5.28;1.15;;;;;;;18.44;65.10;96458.88;5060010;28;24443;-74
2022/08/06 02:38:36;;;;;;;1.75;1.10;;;;;;;18.21;65.65;96452.94;5063415;28;24441;-75
2022/08/06 02:41:16;;;;;;;1.70;1.03;;;;;;;18.31;65.55;96451.19;5055120;28;24435;-75
2022/08/06 02:43:51;;;;;;;4.13;1.20;;;;;;;18.43;64.90;96444.09;5059140;28;24427;-75
2022/08/06 02:46:25;;;;;;;2.20;1.10;;;;;;;18.36;64.83;96447.25;5055896;28;24442;-75
2022/08/06 02:48:59;;;;;;;1.92;1.08;;;;;;;18.25;65.87;96455.16;5059074;28;24438;-75
2022/08/06 02:51:29;;;;;;;4.22;1.33;;;;;;;18.01;66.35;96442.28;5055191;28;24438;-76
2022/08/06 02:54:00;;;;;;;5.80;1.13;;;;;;;18.04;66.52;96451.69;5059532;28;24531;-75
2022/08/06 02:56:29;;;;;;;2.20;1.20;;;;;;;18.00;66.94;96445.88;5062367;28;24450;-74
2022/08/06 02:58:59;;;;;;;2.22;1.10;;;;;;;18.01;66.92;96451.94;5059583;28;24439;-75
2022/08/06 03:01:29;;;;;;;2.33;1.13;;;;;;;18.01;67.34;96447.53;5055411;28;24995;-75
2022/08/06 03:03:58;;;;;;;2.15;1.00;;;;;;;18.03;67.33;96452.66;5053597;28;24438;-75
2022/08/06 03:06:27;;;;;;;2.97;1.20;;;;;;;18.06;67.05;96452.41;5062420;28;24515;-75
2022/08/06 03:08:56;;;;;;;1.75;1.33;;;;;;;17.99;67.76;96459.94;5059173;28;24859;-75
2022/08/06 03:11:23;;;;;;;5.72;1.15;;;;;;;18.10;66.71;96464.31;5056372;28;25010;-76
2022/08/06 03:13:51;;;;;;;3.60;1.20;;;;;;;18.07;67.31;96467.16;5056608;28;24820;-74
2022/08/06 03:16:20;;;;;;;3.30;1.02;;;;;;;17.91;67.68;96472.84;5054307;28;24446;-75
2022/08/06 03:18:47;;;;;;;2.85;1.42;;;;;;;17.84;68.44;96464.63;5059450;28;25010;-75
2022/08/06 03:21:15;;;;;;;3.50;1.20;;;;;;;17.95;68.29;96466.38;5060232;28;24984;-75
2022/08/06 03:23:42;;;;;;;2.22;1.35;;;;;;;18.19;67.65;96468.78;5058573;28;24446;-76
2022/08/06 03:26:11;;;;;;;1.50;0.93;;;;;;;17.96;67.83;96475.06;5060248;28;24438;-76
2022/08/06 03:28:37;;;;;;;2.53;1.35;;;;;;;17.80;68.94;96470.25;5060972;28;24449;-74
2022/08/06 03:31:04;;;;;;;1.95;1.20;;;;;;;17.99;68.12;96467.78;5056249;28;25014;-76
2022/08/06 03:33:34;;;;;;;4.35;1.38;;;;;;;17.74;68.69;96466.28;5060985;28;24856;-76
2022/08/06 03:36:03;;;;;;;3.80;1.15;;;;;;;17.71;69.38;96476.19;5057147;28;24805;-75
2022/08/06 03:38:35;;;;;;;2.60;1.30;;;;;;;17.53;70.32;96468.81;5061740;28;24434;-76
2022/08/06 03:41:02;;;;;;;2.03;1.20;;;;;;;17.49;70.57;96477.06;5058689;28;24443;-76
2022/08/06 03:43:29;;;;;;;2.40;1.38;;;;;;;17.49;70.59;96480.50;5058329;28;24435;-75
2022/08/06 03:46:00;;;;;;;3.08;1.17;;;;;;;17.72;69.74;96480.47;5063263;28;24512;-76
2022/08/06 03:48:32;;;;;;;3.05;1.30;;;;;;;17.97;69.03;96481.97;5061151;28;24439;-75
2022/08/06 03:51:03;;;;;;;2.60;1.10;;;;;;;17.82;69.12;96484.03;5063671;28;24991;-75
2022/08/06 03:53:34;;;;;;;4.22;1.33;;;;;;;17.81;69.21;96490.25;5057411;28;24992;-76
2022/08/06 03:56:03;;;;;;;1.85;1.27;;;;;;;17.70;70.22;96485.00;5058531;28;25171;-76
2022/08/06 03:58:31;;;;;;;1.80;1.03;;;;;;;17.59;70.09;96491.91;5053317;28;24523;-74
2022/08/06 04:01:02;;;;;;;2.38;0.95;;;;;;;17.51;70.37;96489.09;5054042;28;25027;-74
2022/08/06 04:03:29;;;;;;;1.80;1.10;;;;;;;17.60;70.60;96483.09;5051719;28;24431;-75
2022/08/06 04:05:57;;;;;;;3.08;1.23;;;;;;;17.74;70.08;96481.19;5058333;28;24440;-75
2022/08/06 04:08:26;;;;;;;1.93;1.07;;;;;;;17.84;69.86;96482.16;5049019;28;24435;-75
2022/08/06 04:10:53;;;;;;;4.03;1.42;;;;;;;17.48;71.11;96483.25;5041412;28;24509;-75
2022/08/06 04:13:22;;;;;;;4.23;1.53;;;;;;;17.65;70.72;96488.00;5046818;28;24553;-74
2022/08/06 04:15:50;;;;;;;3.03;1.50;;;;;;;17.51;71.27;96493.50;5047801;28;25047;-75
2022/08/06 04:18:19;;;;;;;1.48;1.00;;;;;;;17.42;71.45;96488.00;5048301;28;24434;-75
2022/08/06 04:20:48;;;;;;;2.78;1.30;;;;;;;17.28;72.20;96496.13;5046479;28;24991;-74
2022/08/06 04:23:15;;;;;;;1.83;0.98;;;;;;;17.23;73.18;96505.28;5053643;28;24458;-75
2022/08/06 04:25:54;;;;;;;1.77;1.20;;;;;;;17.32;72.88;96502.78;5050804;28;24439;-75
2022/08/06 04:28:21;;;;;;;2.20;1.15;;;;;;;17.47;71.95;96502.56;5049708;28;24428;-74
2022/08/06 04:30:50;;;;;;;2.43;1.13;;;;;;;17.55;71.52;96503.59;5049098;28;24448;-75
2022/08/06 04:33:19;;;;;;;3.33;1.33;;;;;;;17.42;72.03;96498.47;5052288;28;25136;-74
2022/08/06 04:35:46;;;;;;;3.10;1.10;;;;;;;17.45;72.73;96502.66;5043550;28;24446;-75
2022/08/06 04:38:16;;;;;;;4.90;1.30;;;;;;;17.34;73.01;96506.09;5048794;28;25291;-74
2022/08/06 04:40:44;;;;;;;2.25;1.05;;;;;;;17.24;73.47;96509.56;5048507;28;24439;-75
2022/08/06 04:43:11;;;;;;;2.35;1.02;;;;;;;17.07;74.62;96521.34;5054016;28;24434;-75
2022/08/06 04:45:40;;;;;;;2.05;1.20;;;;;;;17.15;73.91;96525.03;5048246;28;24435;-75
2022/08/06 04:48:09;;;;;;;3.95;1.20;;;;;;;17.27;73.79;96523.25;5053442;28;24515;-75
2022/08/06 04:50:36;;;;;;;2.47;1.30;;;;;;;17.28;73.43;96524.06;5049067;28;24497;-76
2022/08/06 04:53:07;;;;;;;3.35;1.45;;;;;;;17.56;72.24;96536.69;5050820;28;24478;-74
2022/08/06 04:55:34;;;;;;;3.22;1.05;;;;;;;17.46;72.72;96530.50;5051111;28;24455;-75
2022/08/06 04:58:03;;;;;;;6.07;1.33;;;;;;;17.33;74.02;96529.81;5053935;28;24466;-75
2022/08/06 05:00:30;;;;;;;3.25;1.50;;;;;;;17.59;72.84;96531.22;5054756;28;24427;-76
2022/08/06 05:02:56;;;;;;;2.83;1.30;;;;;;;17.51;72.32;96536.22;5050625;28;24486;-75
2022/08/06 05:05:23;;;;;;;3.28;1.50;;;;;;;17.62;72.83;96535.38;5046635;28;24489;-75
2022/08/06 05:07:52;;;;;;;3.30;1.50;;;;;;;17.49;73.07;96543.34;5048879;28;24447;-75
2022/08/06 05:10:20;;;;;;;2.22;1.40;;;;;;;17.54;73.08;96545.59;5046917;28;24497;-75
2022/08/06 05:12:51;;;;;;;4.97;1.40;;;;;;;17.43;74.28;96546.47;5048829;28;24463;-75
2022/08/06 05:15:23;;;;;;;3.50;1.43;;;;;;;17.28;74.24;96555.50;5050807;28;24439;-75
2022/08/06 05:17:56;;;;;;;4.47;1.33;;;;;;;17.38;74.09;96556.44;5044491;28;24454;-76
2022/08/06 05:20:22;;;;;;;3.67;1.45;;;;;;;17.32;74.06;96563.00;5043934;28;24534;-74
2022/08/06 05:22:54;;;;;;;1.67;1.15;;;;;;;17.27;75.16;96566.91;5048626;28;24435;-75
2022/08/06 05:25:21;;;;;;;3.55;1.35;;;;;;;17.23;75.37;96563.69;5051881;28;24445;-75
2022/08/06 05:27:48;;;;;;;5.65;1.40;;;;;;;17.54;74.84;96566.56;5060367;28;24431;-75
2022/08/06 05:30:15;;;;;;;3.23;1.43;;;;;;;17.64;74.35;96563.09;5056747;28;24484;-76
2022/08/06 05:32:43;;;;;;;3.17;1.50;;;;;;;17.57;73.85;96561.91;5058125;28;24534;-74
2022/08/06 05:35:10;;;;;;;2.97;1.50;;;;;;;17.88;73.62;96568.25;5064260;28;24446;-73
2022/08/06 05:37:37;;;;;;;3.60;1.50;;;;;;;17.92;72.67;96563.59;5063953;28;24431;-74
2022/08/06 05:40:05;;;;;;;4.15;1.50;;;;;;;17.68;73.95;96568.94;5058823;28;24465;-73
2022/08/06 05:42:32;;;;;;;4.25;1.55;;;;;;;17.71;73.88;96560.00;5062907;28;24435;-73
2022/08/06 05:44:58;;;;;;;2.47;1.45;;;;;;;17.64;73.24;96563.09;5055085;28;24836;-73
2022/08/06 05:47:28;;;;;;;3.85;1.40;;;;;;;17.73;73.99;96556.31;5061583;28;24442;-73
2022/08/06 05:50:03;;;;;;;6.50;1.90;;;;;;;17.82;73.75;96563.47;5060329;28;25007;-73
2022/08/06 05:52:35;;;;;;;3.80;1.43;;;;;;;17.94;73.61;96558.22;5056956;28;24801;-73
2022/08/06 05:55:06;;;;;;;5.45;1.58;;;;;;;17.79;72.77;96561.09;5055616;28;24451;-72
2022/08/06 05:57:39;;;;;;;3.28;1.50;;;;;;;18.04;72.09;96572.25;5054443;28;24523;-73
2022/08/06 06:00:09;;;;;;;2.10;1.45;;;;;;;18.18;71.95;96573.78;5060033;28;24435;-73
2022/08/06 06:02:38;;;;;;;3.95;1.70;;;;;;;18.16;72.32;96563.41;5062646;28;24433;-73
2022/08/06 06:05:07;;;;;;;4.53;1.88;;;;;;;17.96;72.48;96578.13;5062392;28;24531;-74
2022/08/06 06:07:34;;;;;;;2.93;1.67;;;;;;;17.81;72.82;96576.72;5052119;28;24882;-74
2022/08/06 06:10:02;;;;;;;3.42;1.63;;;;;;;17.84;73.36;96589.56;5057195;28;24805;-75
2022/08/06 06:12:30;;;;;;;6.40;1.73;;;;;;;17.72;73.86;96593.09;5062092;28;24438;-75
2022/08/06 06:14:57;;;;;;;3.20;1.50;;;;;;;17.48;75.07;96593.25;5063359;28;24455;-75
2022/08/06 06:17:34;;;;;;;3.97;2.03;;;;;;;17.57;73.87;96595.97;5061194;28;24525;-76
2022/08/06 06:20:13;;;;;;;5.57;1.67;;;;;;;17.70;73.02;96593.25;5064083;28;24449;-75
2022/08/06 06:22:47;;;;;;;4.82;1.80;;;;;;;17.64;73.79;96591.09;5063617;28;24503;-75
2022/08/06 06:25:19;;;;;;;3.90;1.40;;;;;;;17.66;73.67;96594.44;5065467;28;24442;-75
2022/08/06 06:27:50;;;;;;;5.50;1.65;;;;;;;17.64;75.05;96591.09;5063304;28;24744;-76
2022/08/06 06:30:22;;;;;;;4.37;1.70;;;;;;;17.75;74.43;96600.72;5056719;28;24442;-75
2022/08/06 06:32:53;;;;;;;4.63;1.80;;;;;;;17.77;74.34;96606.72;5055715;28;24462;-75
2022/08/06 06:35:28;;;;;;;5.88;1.98;;;;;;;17.66;74.39;96610.16;5050712;28;24482;-75
2022/08/06 06:38:05;;;;;;;2.80;1.50;;;;;;;17.80;73.87;96607.31;5062075;28;24434;-76
2022/08/06 06:40:47;;;;;;;4.90;1.70;;;;;;;18.02;72.51;96600.38;5062606;28;24449;-76
2022/08/06 06:43:18;;;;;;;4.40;1.58;;;;;;;18.25;72.82;96604.63;5063603;28;24434;-76
2022/08/06 06:45:54;;;;;;;3.10;1.67;;;;;;;18.13;72.39;96609.06;5062972;28;24442;-76
2022/08/06 06:48:26;;;;;;;5.47;1.80;;;;;;;18.62;70.79;96612.97;5060480;28;24792;-76
2022/08/06 06:51:01;;;;;;;5.07;1.80;;;;;;;18.57;69.68;96606.41;5062432;28;24437;-76
2022/08/06 06:53:31;;;;;;;3.80;1.80;;;;;;;18.39;71.79;96616.59;5052100;28;24820;-75
2022/08/06 06:55:59;;;;;;;5.63;1.75;;;;;;;18.25;71.75;96611.66;5062012;28;24442;-75
2022/08/06 06:58:32;;;;;;;2.33;1.58;;;;;;;18.34;72.16;96618.78;5054478;28;24994;-76
2022/08/06 07:00:59;;;;;;;6.45;1.77;;;;;;;18.58;72.86;96614.19;5061623;28;24525;-75
2022/08/06 07:03:28;;;;;;;3.90;2.00;;;;;;;18.65;71.85;96609.28;5054749;28;24488;-75
2022/08/06 07:05:58;;;;;;;4.15;1.80;;;;;;;18.78;70.48;96612.56;5061671;28;24860;-76
2022/08/06 07:08:26;;;;;;;3.75;1.95;;;;;;;18.57;70.12;96622.16;5053896;28;24473;-75
2022/08/06 07:10:55;;;;;;;3.15;1.50;;;;;;;18.66;71.94;96616.19;5062061;28;24430;-75
2022/08/06 07:13:22;;;;;;;4.27;1.60;;;;;;;18.74;70.22;96612.94;5060341;28;24450;-75
2022/08/06 07:15:50;;;;;;;4.93;2.08;;;;;;;18.48;70.49;96615.06;5062004;28;24458;-75
2022/08/06 07:18:18;;;;;;;3.10;1.58;;;;;;;18.69;69.70;96621.19;5059388;28;24437;-76
2022/08/06 07:20:45;;;;;;;2.75;1.60;;;;;;;18.72;68.11;96626.19;5062012;28;24431;-76
2022/08/06 07:23:15;;;;;;;2.38;1.52;;;;;;;18.76;67.54;96622.38;5053998;28;24466;-76
2022/08/06 07:25:45;;;;;;;6.25;1.92;;;;;;;18.89;67.59;96618.72;5062096;28;24474;-76
2022/08/06 07:28:15;;;;;;;5.35;1.73;;;;;;;19.23;66.85;96619.38;5061405;28;24442;-76
2022/08/06 07:30:42;;;;;;;2.35;1.45;;;;;;;19.13;66.44;96614.03;5055090;28;24805;-76
2022/08/06 07:33:10;;;;;;;3.73;1.87;;;;;;;19.46;63.99;96620.88;5057399;28;24526;-75
2022/08/06 07:35:40;;;;;;;2.88;1.48;;;;;;;19.22;64.20;96621.16;5061793;28;24525;-76
2022/08/06 07:38:09;;;;;;;4.28;1.50;;;;;;;19.79;64.18;96601.41;5060916;28;24435;-75
2022/08/06 07:40:41;;;;;;;3.72;1.95;;;;;;;19.99;61.97;96610.22;5061492;28;24983;-75
2022/08/06 07:43:12;;;;;;;2.47;1.52;;;;;;;20.06;60.83;96600.81;5058291;28;24432;-76
2022/08/06 07:45:39;;;;;;;3.35;1.58;;;;;;;20.39;59.43;96598.78;5058004;28;24442;-75
2022/08/06 07:48:09;;;;;;;2.53;1.27;;;;;;;20.38;57.30;96617.34;5059947;28;24440;-75
2022/08/06 07:50:37;;;;;;;4.20;1.35;;;;;;;20.18;56.72;96603.34;5061419;28;24535;-76
2022/08/06 07:53:04;;;;;;;3.33;1.40;;;;;;;19.75;58.36;96609.72;5059669;28;24454;-75
2022/08/06 07:55:31;;;;;;;4.63;1.27;;;;;;;19.99;58.59;96612.03;5061266;28;24801;-76
2022/08/06 07:58:01;;;;;;;3.10;1.30;;;;;;;20.23;59.16;96612.47;5059494;28;24435;-76
2022/08/06 08:00:28;;;;;;;4.88;1.55;;;;;;;20.53;57.02;96613.38;5061382;28;24430;-76
2022/08/06 08:08:26;;;;;;;5.72;1.50;;;;;;;20.72;55.01;96623.91;5050143;28;24484;-76
2022/08/06 08:10:53;;;;;;;3.92;1.65;;;;;;;20.52;54.33;96611.72;5059321;28;24427;-76
2022/08/06 08:13:22;;;;;;;2.63;1.40;;;;;;;20.17;56.25;96615.66;5048699;28;25088;-75
2022/08/06 08:15:49;;;;;;;2.85;1.23;;;;;;;19.99;56.69;96622.53;5059541;28;24431;-75
2022/08/06 08:18:16;;;;;;;4.88;1.50;;;;;;;19.53;57.63;96622.03;5060707;28;24427;-75
2022/08/06 08:20:44;;;;;;;2.75;1.30;;;;;;;19.67;57.33;96627.94;5059103;28;24426;-75
2022/08/06 08:23:13;;;;;;;5.05;1.70;;;;;;;19.33;56.53;96625.53;5059406;28;24474;-76
2022/08/06 08:25:40;;;;;;;4.70;1.27;;;;;;;19.55;57.26;96625.38;5060367;28;24785;-75
2022/08/06 08:28:07;;;;;;;5.60;1.37;;;;;;;20.07;56.19;96622.69;5059574;28;24847;-75
2022/08/06 08:30:38;;;;;;;1.60;1.30;;;;;;;19.92;55.17;96627.50;5061005;28;24442;-75
2022/08/06 08:33:04;;;;;;;2.50;1.35;;;;;;;20.08;56.27;96621.72;5055611;28;24431;-76
2022/08/06 08:35:31;;;;;;;4.23;1.47;;;;;;;20.08;56.60;96618.25;5054912;28;24492;-76
2022/08/06 08:37:57;;;;;;;3.28;1.48;;;;;;;19.95;55.96;96621.97;5058578;28;24427;-76
2022/08/06 08:40:25;;;;;;;3.85;1.67;;;;;;;19.77;57.13;96626.19;5060738;28;24434;-76
2022/08/06 08:42:55;;;;;;;3.17;1.45;;;;;;;19.91;55.60;96620.56;5061311;28;24493;-76
2022/08/06 08:45:22;;;;;;;3.50;1.38;;;;;;;19.69;56.59;96616.34;5050206;28;24546;-75
2022/08/06 08:47:52;;;;;;;5.27;1.37;;;;;;;19.85;56.12;96622.91;5057106;28;24481;-75
2022/08/06 08:50:20;;;;;;;6.72;1.55;;;;;;;19.58;56.14;96614.59;5049464;28;24992;-76
2022/08/06 08:52:50;;;;;;;9.48;1.40;;;;;;;19.71;55.30;96626.72;5057482;28;24489;-75
2022/08/06 08:55:22;;;;;;;2.93;1.10;;;;;;;19.85;54.59;96625.53;5064876;28;24452;-75
2022/08/06 08:57:51;;;;;;;4.28;1.50;;;;;;;19.16;55.94;96628.72;5057304;28;24461;-76
2022/08/06 09:00:17;;;;;;;3.00;1.50;;;;;;;19.64;54.31;96630.81;5067847;28;24435;-75
2022/08/06 09:02:44;;;;;;;3.70;1.48;;;;;;;19.73;54.19;96623.00;5055231;28;24434;-76
2022/08/06 09:05:13;;;;;;;4.77;1.60;;;;;;;19.65;54.19;96633.31;5084530;22;24564;-71
2022/08/06 09:07:40;;;;;;;3.58;1.40;;;;;;;19.36;55.68;96627.06;5063151;28;24450;-71
2022/08/06 09:10:08;;;;;;;2.83;1.60;;;;;;;19.67;57.10;96633.19;5068751;28;24518;-72
2022/08/06 09:12:35;;;;;;;2.20;1.40;;;;;;;19.67;56.13;96634.03;5061523;28;24431;-72
2022/08/06 09:15:01;;;;;;;4.70;1.40;;;;;;;19.40;57.00;96637.19;5068007;28;24466;-72
2022/08/06 09:17:30;;;;;;;2.30;1.17;;;;;;;19.41;56.96;96638.84;5060934;28;24973;-72
2022/08/06 09:19:56;;;;;;;4.40;1.40;;;;;;;19.81;55.65;96643.34;5067975;28;24441;-72
2022/08/06 09:22:24;;;;;;;6.93;1.50;;;;;;;19.98;56.17;96634.81;5055918;28;24445;-72
2022/08/06 09:24:50;;;;;;;4.57;1.40;;;;;;;19.98;55.27;96645.34;5067545;28;24431;-72
2022/08/06 09:27:18;;;;;;;2.80;1.40;;;;;;;20.10;53.11;96640.84;5053652;28;24480;-72
2022/08/06 09:29:51;;;;;;;3.90;1.60;;;;;;;19.84;53.35;96640.47;5059713;28;24899;-72
2022/08/06 09:32:37;;;;;;;2.28;1.20;;;;;;;20.17;53.80;96641.97;5049370;28;24472;-72
2022/08/06 09:35:15;;;;;;;4.78;1.58;;;;;;;19.89;53.74;96647.94;5060340;28;24512;-74
2022/08/06 09:37:43;;;;;;;3.55;1.38;;;;;;;19.69;53.69;96647.00;5052652;28;24534;-72
2022/08/06 09:40:15;;;;;;;1.57;0.83;;;;;;;20.38;53.40;96644.50;5061242;28;24439;-72
2022/08/06 09:42:43;;;;;;;4.13;1.50;;;;;;;20.71;51.14;96643.31;5053999;28;24793;-72
2022/08/06 09:45:12;;;;;;;2.65;1.20;;;;;;;20.48;51.55;96647.97;5060756;28;24434;-71
2022/08/06 09:47:39;;;;;;;2.53;1.30;;;;;;;20.31;51.89;96643.38;5052483;28;25006;-72
2022/08/06 09:50:06;;;;;;;3.10;1.20;;;;;;;21.07;51.69;96646.25;5061180;28;24442;-72
2022/08/06 09:52:33;;;;;;;4.53;1.47;;;;;;;21.63;47.66;96636.72;5055518;28;24839;-72
2022/08/06 09:55:01;;;;;;;3.80;1.40;;;;;;;21.71;47.65;96645.56;5061722;28;24469;-72
2022/08/06 09:57:41;;;;;;;5.03;1.33;;;;;;;22.09;47.67;96638.47;5059611;28;24991;-72
2022/08/06 10:00:09;;;;;;;3.40;1.52;;;;;;;22.37;45.61;96636.69;5050923;28;24522;-71
2022/08/06 10:02:38;;;;;;;2.88;1.40;;;;;;;22.20;44.85;96638.31;5047822;28;24538;-72
2022/08/06 10:05:09;;;;;;;5.20;1.58;;;;;;;22.11;45.98;96649.72;5052990;28;24443;-72
2022/08/06 10:07:35;;;;;;;7.28;1.70;;;;;;;21.97;47.35;96640.47;5048516;28;24526;-72
2022/08/06 10:10:04;;;;;;;3.33;1.30;;;;;;;22.40;45.87;96641.69;5064031;28;24807;-72
2022/08/06 10:12:30;;;;;;;2.43;1.30;;;;;;;22.23;45.99;96645.94;5059243;28;24427;-71
2022/08/06 10:14:57;;;;;;;3.33;1.40;;;;;;;22.06;46.48;96651.94;5064274;28;24489;-71
2022/08/06 10:17:25;;;;;;;2.20;1.20;;;;;;;22.13;46.87;96637.19;5059930;28;24434;-71
2022/08/06 10:20:06;;;;;;;4.30;1.17;;;;;;;22.57;44.44;96639.19;5062681;28;24449;-71
2022/08/06 10:22:33;;;;;;;3.28;1.17;;;;;;;22.80;43.65;96635.13;5057294;28;24439;-71
2022/08/06 10:25:05;;;;;;;2.23;1.30;;;;;;;23.04;42.61;96634.56;5061342;28;24435;-72
2022/08/06 10:27:34;;;;;;;3.37;1.30;;;;;;;23.10;42.70;96641.88;5060799;28;24566;-72
2022/08/06 10:30:04;;;;;;;2.10;0.90;;;;;;;23.02;41.36;96640.97;5061986;28;24495;-72
2022/08/06 10:32:37;;;;;;;2.83;1.10;;;;;;;23.27;40.83;96634.91;5060938;28;24435;-72
2022/08/06 10:35:05;;;;;;;4.50;1.40;;;;;;;23.11;42.75;96638.25;5062107;28;24463;-72
2022/08/06 10:37:33;;;;;;;3.97;1.33;;;;;;;22.71;43.59;96636.88;5054216;28;25009;-72
2022/08/06 10:40:03;;;;;;;2.90;1.20;;;;;;;22.25;44.80;96635.25;5061492;28;24819;-72
2022/08/06 10:42:30;;;;;;;4.50;1.38;;;;;;;22.63;45.20;96638.59;5062693;28;24470;-72
2022/08/06 10:44:59;;;;;;;3.90;1.55;;;;;;;22.74;42.33;96634.91;5060694;28;24442;-72
2022/08/06 10:47:28;;;;;;;3.37;1.40;;;;;;;22.72;42.31;96637.69;5055795;28;25022;-70
2022/08/06 10:49:55;;;;;;;2.25;1.08;;;;;;;22.40;43.79;96641.69;5064816;28;24563;-71
2022/08/06 10:52:22;;;;;;;2.67;1.00;;;;;;;22.59;45.46;96638.06;5055712;28;24447;-71
2022/08/06 10:54:50;;;;;;;3.03;1.10;;;;;;;22.91;43.17;96634.06;5044807;28;24459;-71
2022/08/06 10:57:19;;;;;;;3.10;1.23;;;;;;;22.72;41.60;96629.78;5061909;28;24796;-71
2022/08/06 10:59:47;;;;;;;2.88;1.30;;;;;;;22.62;41.82;96632.50;5052088;28;24492;-71
2022/08/06 11:02:22;;;;;;;5.80;1.13;;;;;;;22.34;43.32;96628.25;5058058;28;24485;-71
2022/08/06 11:04:51;;;;;;;2.45;1.40;;;;;;;22.71;43.82;96628.13;5051399;28;24445;-71
2022/08/06 11:07:36;;;;;;;3.90;1.30;;;;;;;23.05;43.20;96630.91;5045779;28;24986;-71
2022/08/06 11:10:33;;;;;;;2.53;1.10;;;;;;;23.08;41.56;96627.16;5058703;28;25029;-71
2022/08/06 11:13:22;;;;;;;3.15;1.30;;;;;;;22.89;41.74;96625.47;5054792;28;24983;-71
2022/08/06 11:15:49;;;;;;;2.72;1.23;;;;;;;22.90;41.89;96625.31;5052361;28;24463;-71
2022/08/06 11:18:16;;;;;;;2.22;1.00;;;;;;;23.00;42.19;96613.88;5055463;28;24554;-71
2022/08/06 11:20:44;;;;;;;3.30;1.33;;;;;;;23.19;40.79;96618.97;5057565;28;24441;-71
2022/08/06 11:23:26;;;;;;;4.40;1.77;;;;;;;23.49;40.95;96614.22;5053554;28;24438;-71
2022/08/06 11:25:54;;;;;;;5.53;2.10;;;;;;;24.14;42.15;96615.41;5052083;28;24501;-71
2022/08/06 11:28:59;;;;;;;5.55;2.05;;;;;;;24.04;41.05;96605.94;5049656;28;24935;-71
2022/08/06 11:31:45;;;;;;;2.78;1.60;;;;;;;23.28;39.12;96607.47;5057403;28;24475;-71
2022/08/06 11:34:16;;;;;;;7.50;1.53;;;;;;;22.80;39.83;96605.25;5055446;28;24520;-72
2022/08/06 11:36:52;;;;;;;2.43;1.10;;;;;;;22.67;40.41;96600.38;5060129;28;24453;-72
2022/08/06 11:39:21;;;;;;;4.72;1.25;;;;;;;23.49;39.39;96599.19;5054463;28;24539;-71
2022/08/06 11:41:59;;;;;;;2.47;1.27;;;;;;;23.55;39.07;96601.22;5060858;28;24542;-70
2022/08/06 11:44:28;;;;;;;1.83;1.08;;;;;;;23.20;39.49;96602.13;5052292;28;24542;-70
2022/08/06 11:47:13;;;;;;;2.35;1.15;;;;;;;22.88;39.64;96590.31;5060977;28;24441;-70
2022/08/06 11:49:42;;;;;;;4.35;1.48;;;;;;;22.75;39.61;96583.75;5057872;28;24483;-70
2022/08/06 11:52:09;;;;;;;2.00;1.10;;;;;;;23.41;40.93;96583.28;5062550;28;25071;-70